KCLL/CLL METAR and TAF weather

Enter ICAO airport designator
Station Type Date Time Source
KCLL METAR 2021/05/14 07:53 UTC NOAA

KCLL 140753Z AUTO 00000KT 10SM OVC050 21/15 A3018 RMK AO2 SLP215 T02060150


Station Type Date Time Source
KCLL Decoded METAR 2021/05/14 07:53 UTC NOAA

COLLEGE STN EASTERWOOD FIELD, TX, United States (KCLL) 30-35N 096-22W 96M
May 14, 2021 - 03:53 AM EDT / 2021.05.14 0753 UTC
Wind: Calm:0
Visibility: 10 mile(s):0
Sky conditions: overcast
Temperature: 69.1 F (20.6 C)
Dew Point: 59.0 F (15.0 C)
Relative Humidity: 70%
Pressure (altimeter): 30.18 in. Hg (1022 hPa)
ob: KCLL 140753Z AUTO 00000KT 10SM OVC050 21/15 A3018 RMK AO2 SLP215 T02060150
cycle: 8

Station Type Date Time Source
KCLL TAF 2021/05/14 06:22 UTC NOAA

TAF KCLL 140520Z 1406/1506 VRB04KT P6SM SCT035 OVC050
FM141300 08005KT P6SM SCT050
FM141600 12006KT P6SM BKN050
FM142300 15005KT P6SM SCT035 BKN050

Example: see airport list